sensor_id;sensor_type;location;lat;lon;timestamp;P1;durP1;ratioP1;P2;durP2;ratioP2
15171;SDS011;7686;52.184;9.280;2023-02-28T00:01:27;0.43;;;0.40;;
15171;SDS011;7686;52.184;9.280;2023-02-28T00:03:54;0.50;;;0.50;;
15171;SDS011;7686;52.184;9.280;2023-02-28T00:06:21;0.90;;;0.60;;
15171;SDS011;7686;52.184;9.280;2023-02-28T00:08:48;0.77;;;0.60;;
15171;SDS011;7686;52.184;9.280;2023-02-28T00:11:15;0.77;;;0.50;;
15171;SDS011;7686;52.184;9.280;2023-02-28T00:13:43;0.50;;;0.50;;
15171;SDS011;7686;52.184;9.280;2023-02-28T00:16:15;0.68;;;0.47;;
15171;SDS011;7686;52.184;9.280;2023-02-28T00:18:47;0.75;;;0.50;;
15171;SDS011;7686;52.184;9.280;2023-02-28T00:21:14;0.43;;;0.43;;
15171;SDS011;7686;52.184;9.280;2023-02-28T00:23:41;0.60;;;0.50;;
15171;SDS011;7686;52.184;9.280;2023-02-28T00:26:08;0.47;;;0.47;;
15171;SDS011;7686;52.184;9.280;2023-02-28T00:28:35;0.60;;;0.60;;
15171;SDS011;7686;52.184;9.280;2023-02-28T00:31:01;0.50;;;0.50;;
15171;SDS011;7686;52.184;9.280;2023-02-28T00:33:28;0.43;;;0.43;;
15171;SDS011;7686;52.184;9.280;2023-02-28T00:36:08;0.43;;;0.43;;
15171;SDS011;7686;52.184;9.280;2023-02-28T00:38:36;0.57;;;0.40;;
15171;SDS011;7686;52.184;9.280;2023-02-28T00:41:04;0.70;;;0.50;;
15171;SDS011;7686;52.184;9.280;2023-02-28T00:43:34;0.80;;;0.50;;
15171;SDS011;7686;52.184;9.280;2023-02-28T00:46:02;1.00;;;0.50;;
15171;SDS011;7686;52.184;9.280;2023-02-28T00:48:30;0.40;;;0.40;;
15171;SDS011;7686;52.184;9.280;2023-02-28T00:50:57;0.38;;;0.38;;
15171;SDS011;7686;52.184;9.280;2023-02-28T00:53:23;0.77;;;0.60;;
15171;SDS011;7686;52.184;9.280;2023-02-28T00:55:50;0.43;;;0.43;;
15171;SDS011;7686;52.184;9.280;2023-02-28T00:58:16;0.50;;;0.50;;
15171;SDS011;7686;52.184;9.280;2023-02-28T01:00:43;1.77;;;0.60;;
15171;SDS011;7686;52.184;9.280;2023-02-28T01:03:16;0.50;;;0.50;;
15171;SDS011;7686;52.184;9.280;2023-02-28T01:05:44;0.50;;;0.40;;
15171;SDS011;7686;52.184;9.280;2023-02-28T01:08:11;0.47;;;0.47;;
15171;SDS011;7686;52.184;9.280;2023-02-28T01:10:38;0.40;;;0.40;;
15171;SDS011;7686;52.184;9.280;2023-02-28T01:13:05;1.08;;;0.65;;
15171;SDS011;7686;52.184;9.280;2023-02-28T01:15:32;0.38;;;0.38;;
15171;SDS011;7686;52.184;9.280;2023-02-28T01:17:59;0.98;;;0.43;;
15171;SDS011;7686;52.184;9.280;2023-02-28T01:20:25;0.63;;;0.50;;
15171;SDS011;7686;52.184;9.280;2023-02-28T01:22:52;0.50;;;0.50;;
15171;SDS011;7686;52.184;9.280;2023-02-28T01:25:19;0.40;;;0.40;;
15171;SDS011;7686;52.184;9.280;2023-02-28T01:27:45;1.08;;;0.50;;
15171;SDS011;7686;52.184;9.280;2023-02-28T01:30:12;0.63;;;0.60;;
15171;SDS011;7686;52.184;9.280;2023-02-28T01:32:39;0.55;;;0.40;;
15171;SDS011;7686;52.184;9.280;2023-02-28T01:35:06;0.50;;;0.50;;
15171;SDS011;7686;52.184;9.280;2023-02-28T01:37:32;0.93;;;0.50;;
15171;SDS011;7686;52.184;9.280;2023-02-28T01:39:59;0.40;;;0.40;;
15171;SDS011;7686;52.184;9.280;2023-02-28T01:42:26;0.63;;;0.43;;
15171;SDS011;7686;52.184;9.280;2023-02-28T01:47:47;0.30;;;0.30;;
15171;SDS011;7686;52.184;9.280;2023-02-28T01:50:23;0.30;;;0.30;;
15171;SDS011;7686;52.184;9.280;2023-02-28T01:52:53;0.40;;;0.40;;
15171;SDS011;7686;52.184;9.280;2023-02-28T01:55:23;0.40;;;0.40;;
15171;SDS011;7686;52.184;9.280;2023-02-28T01:57:55;0.60;;;0.60;;
15171;SDS011;7686;52.184;9.280;2023-02-28T02:00:26;0.45;;;0.45;;
15171;SDS011;7686;52.184;9.280;2023-02-28T02:02:55;1.00;;;0.50;;
15171;SDS011;7686;52.184;9.280;2023-02-28T02:05:26;0.35;;;0.35;;
15171;SDS011;7686;52.184;9.280;2023-02-28T02:07:58;0.57;;;0.50;;
15171;SDS011;7686;52.184;9.280;2023-02-28T02:10:35;0.57;;;0.50;;
15171;SDS011;7686;52.184;9.280;2023-02-28T02:18:46;0.40;;;0.40;;
15171;SDS011;7686;52.184;9.280;2023-02-28T02:27:13;0.30;;;0.30;;
15171;SDS011;7686;52.184;9.280;2023-02-28T02:35:47;0.30;;;0.30;;
15171;SDS011;7686;52.184;9.280;2023-02-28T02:38:32;0.40;;;0.40;;
15171;SDS011;7686;52.184;9.280;2023-02-28T02:42:20;0.30;;;0.30;;
15171;SDS011;7686;52.184;9.280;2023-02-28T02:44:21;0.40;;;0.40;;
15171;SDS011;7686;52.184;9.280;2023-02-28T02:46:58;0.30;;;0.30;;
15171;SDS011;7686;52.184;9.280;2023-02-28T02:49:47;0.98;;;0.60;;
15171;SDS011;7686;52.184;9.280;2023-02-28T02:52:18;0.70;;;0.60;;
15171;SDS011;7686;52.184;9.280;2023-02-28T02:54:50;0.68;;;0.40;;
15171;SDS011;7686;52.184;9.280;2023-02-28T02:57:25;0.60;;;0.40;;
15171;SDS011;7686;52.184;9.280;2023-02-28T02:59:58;0.40;;;0.40;;
15171;SDS011;7686;52.184;9.280;2023-02-28T03:02:27;0.60;;;0.60;;
15171;SDS011;7686;52.184;9.280;2023-02-28T03:05:01;0.30;;;0.30;;
15171;SDS011;7686;52.184;9.280;2023-02-28T03:07:31;0.60;;;0.47;;
15171;SDS011;7686;52.184;9.280;2023-02-28T03:09:58;0.40;;;0.40;;
15171;SDS011;7686;52.184;9.280;2023-02-28T03:12:33;0.98;;;0.60;;
15171;SDS011;7686;52.184;9.280;2023-02-28T03:15:09;0.50;;;0.50;;
15171;SDS011;7686;52.184;9.280;2023-02-28T03:18:08;0.30;;;0.30;;
15171;SDS011;7686;52.184;9.280;2023-02-28T03:20:41;0.50;;;0.50;;
15171;SDS011;7686;52.184;9.280;2023-02-28T03:23:28;0.30;;;0.30;;
15171;SDS011;7686;52.184;9.280;2023-02-28T03:26:12;0.40;;;0.40;;
15171;SDS011;7686;52.184;9.280;2023-02-28T03:31:27;0.20;;;0.20;;
15171;SDS011;7686;52.184;9.280;2023-02-28T03:34:00;0.88;;;0.35;;
15171;SDS011;7686;52.184;9.280;2023-02-28T03:36:33;0.40;;;0.40;;
15171;SDS011;7686;52.184;9.280;2023-02-28T03:39:30;0.45;;;0.40;;
15171;SDS011;7686;52.184;9.280;2023-02-28T03:42:05;0.40;;;0.40;;
15171;SDS011;7686;52.184;9.280;2023-02-28T03:44:44;0.40;;;0.40;;
15171;SDS011;7686;52.184;9.280;2023-02-28T03:47:58;0.50;;;0.50;;
15171;SDS011;7686;52.184;9.280;2023-02-28T03:50:20;1.55;;;0.43;;
15171;SDS011;7686;52.184;9.280;2023-02-28T03:53:19;0.68;;;0.40;;
15171;SDS011;7686;52.184;9.280;2023-02-28T03:56:00;0.40;;;0.40;;
15171;SDS011;7686;52.184;9.280;2023-02-28T03:58:51;0.43;;;0.40;;
15171;SDS011;7686;52.184;9.280;2023-02-28T04:04:09;0.25;;;0.25;;
15171;SDS011;7686;52.184;9.280;2023-02-28T04:06:37;2.22;;;0.30;;
15171;SDS011;7686;52.184;9.280;2023-02-28T04:09:05;0.30;;;0.30;;
15171;SDS011;7686;52.184;9.280;2023-02-28T04:11:37;0.30;;;0.30;;
15171;SDS011;7686;52.184;9.280;2023-02-28T04:14:08;0.40;;;0.40;;
15171;SDS011;7686;52.184;9.280;2023-02-28T04:16:37;0.47;;;0.47;;
15171;SDS011;7686;52.184;9.280;2023-02-28T04:19:06;0.43;;;0.43;;
15171;SDS011;7686;52.184;9.280;2023-02-28T04:21:38;0.50;;;0.47;;
15171;SDS011;7686;52.184;9.280;2023-02-28T04:24:11;0.60;;;0.50;;
15171;SDS011;7686;52.184;9.280;2023-02-28T04:26:43;0.40;;;0.40;;
15171;SDS011;7686;52.184;9.280;2023-02-28T04:29:12;0.47;;;0.40;;
15171;SDS011;7686;52.184;9.280;2023-02-28T04:31:39;0.32;;;0.32;;
15171;SDS011;7686;52.184;9.280;2023-02-28T04:34:06;0.30;;;0.30;;
15171;SDS011;7686;52.184;9.280;2023-02-28T04:36:33;0.50;;;0.50;;
15171;SDS011;7686;52.184;9.280;2023-02-28T04:39:00;2.05;;;0.80;;
15171;SDS011;7686;52.184;9.280;2023-02-28T04:41:26;0.43;;;0.40;;
15171;SDS011;7686;52.184;9.280;2023-02-28T04:43:57;0.45;;;0.40;;
15171;SDS011;7686;52.184;9.280;2023-02-28T04:46:24;0.57;;;0.40;;
15171;SDS011;7686;52.184;9.280;2023-02-28T04:48:50;0.30;;;0.30;;
15171;SDS011;7686;52.184;9.280;2023-02-28T04:51:18;0.50;;;0.30;;
15171;SDS011;7686;52.184;9.280;2023-02-28T04:53:45;0.50;;;0.50;;
15171;SDS011;7686;52.184;9.280;2023-02-28T04:56:13;0.47;;;0.47;;
15171;SDS011;7686;52.184;9.280;2023-02-28T04:58:42;0.40;;;0.40;;
15171;SDS011;7686;52.184;9.280;2023-02-28T05:01:16;0.30;;;0.30;;
15171;SDS011;7686;52.184;9.280;2023-02-28T05:03:58;0.30;;;0.30;;
15171;SDS011;7686;52.184;9.280;2023-02-28T05:06:26;0.32;;;0.32;;
15171;SDS011;7686;52.184;9.280;2023-02-28T05:08:54;0.60;;;0.50;;
15171;SDS011;7686;52.184;9.280;2023-02-28T05:11:23;0.50;;;0.50;;
15171;SDS011;7686;52.184;9.280;2023-02-28T05:14:01;0.40;;;0.40;;
15171;SDS011;7686;52.184;9.280;2023-02-28T05:16:30;0.55;;;0.40;;
15171;SDS011;7686;52.184;9.280;2023-02-28T05:18:57;0.47;;;0.40;;
15171;SDS011;7686;52.184;9.280;2023-02-28T05:21:29;9.02;;;0.77;;
15171;SDS011;7686;52.184;9.280;2023-02-28T05:24:00;0.40;;;0.30;;
15171;SDS011;7686;52.184;9.280;2023-02-28T05:26:29;0.25;;;0.25;;
15171;SDS011;7686;52.184;9.280;2023-02-28T05:28:57;0.40;;;0.40;;
15171;SDS011;7686;52.184;9.280;2023-02-28T05:31:23;0.40;;;0.40;;
15171;SDS011;7686;52.184;9.280;2023-02-28T05:33:50;0.40;;;0.40;;
15171;SDS011;7686;52.184;9.280;2023-02-28T05:36:17;0.32;;;0.32;;
15171;SDS011;7686;52.184;9.280;2023-02-28T05:38:46;0.30;;;0.30;;
15171;SDS011;7686;52.184;9.280;2023-02-28T05:41:14;0.50;;;0.50;;
15171;SDS011;7686;52.184;9.280;2023-02-28T05:43:41;0.40;;;0.40;;
15171;SDS011;7686;52.184;9.280;2023-02-28T05:46:09;0.77;;;0.52;;
15171;SDS011;7686;52.184;9.280;2023-02-28T05:48:37;0.47;;;0.47;;
15171;SDS011;7686;52.184;9.280;2023-02-28T05:51:05;0.50;;;0.50;;
15171;SDS011;7686;52.184;9.280;2023-02-28T05:53:33;0.95;;;0.40;;
15171;SDS011;7686;52.184;9.280;2023-02-28T05:56:00;0.40;;;0.40;;
15171;SDS011;7686;52.184;9.280;2023-02-28T05:58:27;0.35;;;0.35;;
15171;SDS011;7686;52.184;9.280;2023-02-28T06:00:57;0.57;;;0.43;;
15171;SDS011;7686;52.184;9.280;2023-02-28T06:03:25;0.50;;;0.40;;
15171;SDS011;7686;52.184;9.280;2023-02-28T06:05:52;0.43;;;0.32;;
15171;SDS011;7686;52.184;9.280;2023-02-28T06:08:19;1.65;;;0.40;;
15171;SDS011;7686;52.184;9.280;2023-02-28T06:10:45;0.88;;;0.50;;
15171;SDS011;7686;52.184;9.280;2023-02-28T06:13:12;1.48;;;0.30;;
15171;SDS011;7686;52.184;9.280;2023-02-28T06:15:39;2.03;;;0.50;;
15171;SDS011;7686;52.184;9.280;2023-02-28T06:18:05;1.50;;;0.40;;
15171;SDS011;7686;52.184;9.280;2023-02-28T06:20:32;0.32;;;0.32;;
15171;SDS011;7686;52.184;9.280;2023-02-28T06:22:59;1.20;;;0.50;;
15171;SDS011;7686;52.184;9.280;2023-02-28T06:25:26;1.30;;;0.60;;
15171;SDS011;7686;52.184;9.280;2023-02-28T06:27:54;2.00;;;0.40;;
15171;SDS011;7686;52.184;9.280;2023-02-28T06:30:21;1.40;;;0.63;;
15171;SDS011;7686;52.184;9.280;2023-02-28T06:32:53;1.10;;;0.50;;
15171;SDS011;7686;52.184;9.280;2023-02-28T06:35:20;0.50;;;0.50;;
15171;SDS011;7686;52.184;9.280;2023-02-28T06:37:47;2.25;;;0.70;;
15171;SDS011;7686;52.184;9.280;2023-02-28T06:40:14;0.70;;;0.40;;
15171;SDS011;7686;52.184;9.280;2023-02-28T06:42:41;1.08;;;0.63;;
15171;SDS011;7686;52.184;9.280;2023-02-28T06:45:08;0.77;;;0.50;;
15171;SDS011;7686;52.184;9.280;2023-02-28T06:47:36;0.68;;;0.50;;
15171;SDS011;7686;52.184;9.280;2023-02-28T06:50:05;0.70;;;0.45;;
15171;SDS011;7686;52.184;9.280;2023-02-28T06:52:33;4.20;;;0.57;;
15171;SDS011;7686;52.184;9.280;2023-02-28T06:55:02;1.33;;;0.50;;
15171;SDS011;7686;52.184;9.280;2023-02-28T06:57:30;0.65;;;0.50;;
15171;SDS011;7686;52.184;9.280;2023-02-28T06:59:59;2.22;;;0.60;;
15171;SDS011;7686;52.184;9.280;2023-02-28T07:02:26;0.50;;;0.50;;
15171;SDS011;7686;52.184;9.280;2023-02-28T07:04:53;2.72;;;0.60;;
15171;SDS011;7686;52.184;9.280;2023-02-28T07:07:20;5.38;;;0.63;;
15171;SDS011;7686;52.184;9.280;2023-02-28T07:09:47;1.17;;;0.50;;
15171;SDS011;7686;52.184;9.280;2023-02-28T07:12:14;0.55;;;0.50;;
15171;SDS011;7686;52.184;9.280;2023-02-28T07:14:40;1.00;;;0.63;;
15171;SDS011;7686;52.184;9.280;2023-02-28T07:17:08;1.65;;;0.60;;
15171;SDS011;7686;52.184;9.280;2023-02-28T07:19:38;1.23;;;0.60;;
15171;SDS011;7686;52.184;9.280;2023-02-28T07:22:06;3.78;;;0.52;;
15171;SDS011;7686;52.184;9.280;2023-02-28T07:24:33;0.90;;;0.70;;
15171;SDS011;7686;52.184;9.280;2023-02-28T07:26:59;1.90;;;0.68;;
15171;SDS011;7686;52.184;9.280;2023-02-28T07:29:27;1.10;;;0.70;;
15171;SDS011;7686;52.184;9.280;2023-02-28T07:31:54;0.95;;;0.47;;
15171;SDS011;7686;52.184;9.280;2023-02-28T07:34:22;2.17;;;0.70;;
15171;SDS011;7686;52.184;9.280;2023-02-28T07:36:49;1.10;;;0.70;;
15171;SDS011;7686;52.184;9.280;2023-02-28T07:39:19;2.55;;;0.80;;
15171;SDS011;7686;52.184;9.280;2023-02-28T07:41:47;2.95;;;0.75;;
15171;SDS011;7686;52.184;9.280;2023-02-28T07:44:14;1.30;;;0.68;;
15171;SDS011;7686;52.184;9.280;2023-02-28T07:46:40;0.93;;;0.55;;
15171;SDS011;7686;52.184;9.280;2023-02-28T07:49:07;1.02;;;0.68;;
15171;SDS011;7686;52.184;9.280;2023-02-28T07:51:34;1.10;;;0.80;;
15171;SDS011;7686;52.184;9.280;2023-02-28T07:54:01;0.55;;;0.55;;
15171;SDS011;7686;52.184;9.280;2023-02-28T07:56:27;1.33;;;0.80;;
15171;SDS011;7686;52.184;9.280;2023-02-28T07:58:55;2.00;;;0.90;;
15171;SDS011;7686;52.184;9.280;2023-02-28T08:01:21;1.92;;;0.85;;
15171;SDS011;7686;52.184;9.280;2023-02-28T08:03:48;1.65;;;0.95;;
15171;SDS011;7686;52.184;9.280;2023-02-28T08:06:19;2.05;;;1.00;;
15171;SDS011;7686;52.184;9.280;2023-02-28T08:08:47;1.65;;;0.90;;
15171;SDS011;7686;52.184;9.280;2023-02-28T08:11:14;1.77;;;0.80;;
15171;SDS011;7686;52.184;9.280;2023-02-28T08:13:42;1.70;;;1.00;;
15171;SDS011;7686;52.184;9.280;2023-02-28T08:16:10;1.45;;;0.82;;
15171;SDS011;7686;52.184;9.280;2023-02-28T08:18:37;2.20;;;1.00;;
15171;SDS011;7686;52.184;9.280;2023-02-28T08:21:08;2.10;;;0.88;;
15171;SDS011;7686;52.184;9.280;2023-02-28T08:23:35;1.70;;;0.90;;
15171;SDS011;7686;52.184;9.280;2023-02-28T08:26:02;1.42;;;0.80;;
15171;SDS011;7686;52.184;9.280;2023-02-28T08:28:29;1.35;;;0.80;;
15171;SDS011;7686;52.184;9.280;2023-02-28T08:30:56;1.83;;;0.90;;
15171;SDS011;7686;52.184;9.280;2023-02-28T08:33:23;1.23;;;0.80;;
15171;SDS011;7686;52.184;9.280;2023-02-28T08:35:56;1.17;;;0.85;;
15171;SDS011;7686;52.184;9.280;2023-02-28T08:38:23;1.05;;;0.90;;
15171;SDS011;7686;52.184;9.280;2023-02-28T08:40:56;1.92;;;0.75;;
15171;SDS011;7686;52.184;9.280;2023-02-28T08:43:27;0.93;;;0.73;;
15171;SDS011;7686;52.184;9.280;2023-02-28T08:45:55;0.98;;;0.68;;
15171;SDS011;7686;52.184;9.280;2023-02-28T08:48:23;1.92;;;0.80;;
15171;SDS011;7686;52.184;9.280;2023-02-28T08:50:57;1.42;;;0.80;;
15171;SDS011;7686;52.184;9.280;2023-02-28T08:53:34;1.42;;;0.70;;
15171;SDS011;7686;52.184;9.280;2023-02-28T08:56:02;1.35;;;0.90;;
15171;SDS011;7686;52.184;9.280;2023-02-28T08:58:34;1.70;;;0.80;;
15171;SDS011;7686;52.184;9.280;2023-02-28T09:01:07;1.15;;;0.80;;
15171;SDS011;7686;52.184;9.280;2023-02-28T09:03:35;2.35;;;0.70;;
15171;SDS011;7686;52.184;9.280;2023-02-28T09:06:02;2.08;;;0.80;;
15171;SDS011;7686;52.184;9.280;2023-02-28T09:08:29;0.82;;;0.50;;
15171;SDS011;7686;52.184;9.280;2023-02-28T09:10:57;2.72;;;0.93;;
15171;SDS011;7686;52.184;9.280;2023-02-28T09:13:25;1.20;;;0.80;;
15171;SDS011;7686;52.184;9.280;2023-02-28T09:15:52;1.15;;;0.70;;
15171;SDS011;7686;52.184;9.280;2023-02-28T09:18:20;0.60;;;0.60;;
15171;SDS011;7686;52.184;9.280;2023-02-28T09:20:47;0.98;;;0.70;;
15171;SDS011;7686;52.184;9.280;2023-02-28T09:23:13;1.30;;;0.70;;
15171;SDS011;7686;52.184;9.280;2023-02-28T09:25:47;0.77;;;0.55;;
15171;SDS011;7686;52.184;9.280;2023-02-28T09:28:15;1.55;;;0.70;;
15171;SDS011;7686;52.184;9.280;2023-02-28T09:30:46;1.48;;;0.70;;
15171;SDS011;7686;52.184;9.280;2023-02-28T09:33:15;1.10;;;0.80;;
15171;SDS011;7686;52.184;9.280;2023-02-28T09:35:43;1.75;;;0.80;;
15171;SDS011;7686;52.184;9.280;2023-02-28T09:38:09;1.48;;;0.82;;
15171;SDS011;7686;52.184;9.280;2023-02-28T09:40:37;1.23;;;0.70;;
15171;SDS011;7686;52.184;9.280;2023-02-28T09:43:12;1.42;;;0.90;;
15171;SDS011;7686;52.184;9.280;2023-02-28T09:45:46;0.85;;;0.80;;
15171;SDS011;7686;52.184;9.280;2023-02-28T09:48:17;0.75;;;0.70;;
15171;SDS011;7686;52.184;9.280;2023-02-28T09:53:19;2.33;;;0.80;;
15171;SDS011;7686;52.184;9.280;2023-02-28T09:55:54;1.90;;;0.80;;
15171;SDS011;7686;52.184;9.280;2023-02-28T09:58:28;1.00;;;0.77;;
15171;SDS011;7686;52.184;9.280;2023-02-28T10:06:26;1.33;;;0.80;;
15171;SDS011;7686;52.184;9.280;2023-02-28T10:09:07;1.10;;;0.80;;
15171;SDS011;7686;52.184;9.280;2023-02-28T10:11:39;1.60;;;0.80;;
15171;SDS011;7686;52.184;9.280;2023-02-28T10:14:14;0.88;;;0.70;;
15171;SDS011;7686;52.184;9.280;2023-02-28T10:16:50;0.77;;;0.77;;
15171;SDS011;7686;52.184;9.280;2023-02-28T10:21:55;1.95;;;0.70;;
15171;SDS011;7686;52.184;9.280;2023-02-28T10:24:39;1.48;;;0.80;;
15171;SDS011;7686;52.184;9.280;2023-02-28T10:27:13;0.65;;;0.65;;
15171;SDS011;7686;52.184;9.280;2023-02-28T10:29:42;0.57;;;0.57;;
15171;SDS011;7686;52.184;9.280;2023-02-28T10:32:22;1.48;;;0.63;;
15171;SDS011;7686;52.184;9.280;2023-02-28T10:34:52;0.63;;;0.63;;
15171;SDS011;7686;52.184;9.280;2023-02-28T10:37:41;0.80;;;0.65;;
15171;SDS011;7686;52.184;9.280;2023-02-28T10:42:58;1.33;;;0.75;;
15171;SDS011;7686;52.184;9.280;2023-02-28T10:45:30;0.77;;;0.70;;
15171;SDS011;7686;52.184;9.280;2023-02-28T10:55:59;0.80;;;0.65;;
15171;SDS011;7686;52.184;9.280;2023-02-28T11:01:15;1.45;;;0.90;;
15171;SDS011;7686;52.184;9.280;2023-02-28T11:03:53;1.55;;;0.70;;
15171;SDS011;7686;52.184;9.280;2023-02-28T11:06:24;1.48;;;0.60;;
15171;SDS011;7686;52.184;9.280;2023-02-28T11:09:02;0.82;;;0.60;;
15171;SDS011;7686;52.184;9.280;2023-02-28T11:11:41;0.82;;;0.65;;
15171;SDS011;7686;52.184;9.280;2023-02-28T11:14:21;0.95;;;0.60;;
15171;SDS011;7686;52.184;9.280;2023-02-28T11:16:51;0.68;;;0.60;;
15171;SDS011;7686;52.184;9.280;2023-02-28T11:19:20;1.33;;;0.60;;
15171;SDS011;7686;52.184;9.280;2023-02-28T11:21:58;0.90;;;0.60;;
15171;SDS011;7686;52.184;9.280;2023-02-28T11:24:31;0.88;;;0.60;;
15171;SDS011;7686;52.184;9.280;2023-02-28T11:26:58;0.57;;;0.57;;
15171;SDS011;7686;52.184;9.280;2023-02-28T11:29:26;1.13;;;0.60;;
15171;SDS011;7686;52.184;9.280;2023-02-28T11:32:18;1.10;;;0.60;;
15171;SDS011;7686;52.184;9.280;2023-02-28T11:34:47;0.50;;;0.50;;
15171;SDS011;7686;52.184;9.280;2023-02-28T11:37:30;0.60;;;0.60;;
15171;SDS011;7686;52.184;9.280;2023-02-28T11:39:58;0.52;;;0.52;;
15171;SDS011;7686;52.184;9.280;2023-02-28T11:45:49;0.60;;;0.50;;
15171;SDS011;7686;52.184;9.280;2023-02-28T11:53:21;0.50;;;0.50;;
15171;SDS011;7686;52.184;9.280;2023-02-28T12:07:20;0.90;;;0.60;;
15171;SDS011;7686;52.184;9.280;2023-02-28T12:10:00;1.10;;;0.77;;
15171;SDS011;7686;52.184;9.280;2023-02-28T12:12:38;0.50;;;0.50;;
15171;SDS011;7686;52.184;9.280;2023-02-28T12:15:28;0.57;;;0.55;;
15171;SDS011;7686;52.184;9.280;2023-02-28T12:26:39;0.73;;;0.57;;
15171;SDS011;7686;52.184;9.280;2023-02-28T12:29:19;0.57;;;0.50;;
15171;SDS011;7686;52.184;9.280;2023-02-28T12:32:16;1.33;;;0.63;;
15171;SDS011;7686;52.184;9.280;2023-02-28T12:34:47;0.65;;;0.57;;
15171;SDS011;7686;52.184;9.280;2023-02-28T12:37:17;1.20;;;0.57;;
15171;SDS011;7686;52.184;9.280;2023-02-28T12:40:18;0.63;;;0.60;;
15171;SDS011;7686;52.184;9.280;2023-02-28T12:42:49;1.02;;;0.60;;
15171;SDS011;7686;52.184;9.280;2023-02-28T12:47:48;0.47;;;0.47;;
15171;SDS011;7686;52.184;9.280;2023-02-28T12:50:27;0.63;;;0.57;;
15171;SDS011;7686;52.184;9.280;2023-02-28T12:53:00;1.90;;;0.73;;
15171;SDS011;7686;52.184;9.280;2023-02-28T13:09:20;0.57;;;0.50;;
15171;SDS011;7686;52.184;9.280;2023-02-28T13:11:50;0.73;;;0.50;;
15171;SDS011;7686;52.184;9.280;2023-02-28T13:14:37;0.88;;;0.50;;
15171;SDS011;7686;52.184;9.280;2023-02-28T13:22:19;0.85;;;0.60;;
15171;SDS011;7686;52.184;9.280;2023-02-28T13:27:51;0.65;;;0.50;;
15171;SDS011;7686;52.184;9.280;2023-02-28T13:33:28;0.60;;;0.47;;
15171;SDS011;7686;52.184;9.280;2023-02-28T13:38:41;2.38;;;0.70;;
15171;SDS011;7686;52.184;9.280;2023-02-28T13:49:33;0.70;;;0.60;;
15171;SDS011;7686;52.184;9.280;2023-02-28T13:54:42;0.47;;;0.47;;
15171;SDS011;7686;52.184;9.280;2023-02-28T14:03:10;0.65;;;0.52;;
15171;SDS011;7686;52.184;9.280;2023-02-28T14:08:46;0.45;;;0.45;;
15171;SDS011;7686;52.184;9.280;2023-02-28T14:11:36;0.50;;;0.50;;
15171;SDS011;7686;52.184;9.280;2023-02-28T14:14:06;0.45;;;0.40;;
15171;SDS011;7686;52.184;9.280;2023-02-28T14:16:44;0.52;;;0.50;;
15171;SDS011;7686;52.184;9.280;2023-02-28T14:19:24;0.30;;;0.30;;
15171;SDS011;7686;52.184;9.280;2023-02-28T14:25:21;0.60;;;0.50;;
15171;SDS011;7686;52.184;9.280;2023-02-28T14:27:58;0.52;;;0.50;;
15171;SDS011;7686;52.184;9.280;2023-02-28T14:33:46;0.45;;;0.45;;
15171;SDS011;7686;52.184;9.280;2023-02-28T14:36:21;0.50;;;0.50;;
15171;SDS011;7686;52.184;9.280;2023-02-28T14:38:54;0.45;;;0.45;;
15171;SDS011;7686;52.184;9.280;2023-02-28T14:41:24;0.68;;;0.50;;
15171;SDS011;7686;52.184;9.280;2023-02-28T14:44:11;0.40;;;0.40;;
15171;SDS011;7686;52.184;9.280;2023-02-28T14:46:41;0.85;;;0.68;;
15171;SDS011;7686;52.184;9.280;2023-02-28T14:49:15;0.50;;;0.50;;
15171;SDS011;7686;52.184;9.280;2023-02-28T14:51:46;0.40;;;0.40;;
15171;SDS011;7686;52.184;9.280;2023-02-28T14:54:27;0.38;;;0.38;;
15171;SDS011;7686;52.184;9.280;2023-02-28T14:56:54;0.43;;;0.43;;
15171;SDS011;7686;52.184;9.280;2023-02-28T14:59:23;0.60;;;0.60;;
15171;SDS011;7686;52.184;9.280;2023-02-28T15:02:12;0.40;;;0.40;;
15171;SDS011;7686;52.184;9.280;2023-02-28T15:07:35;0.47;;;0.47;;
15171;SDS011;7686;52.184;9.280;2023-02-28T15:12:54;0.98;;;0.40;;
15171;SDS011;7686;52.184;9.280;2023-02-28T15:15:41;0.65;;;0.47;;
15171;SDS011;7686;52.184;9.280;2023-02-28T15:20:58;0.50;;;0.50;;
15171;SDS011;7686;52.184;9.280;2023-02-28T15:23:32;0.60;;;0.50;;
15171;SDS011;7686;52.184;9.280;2023-02-28T15:26:02;0.47;;;0.47;;
15171;SDS011;7686;52.184;9.280;2023-02-28T15:28:30;0.40;;;0.40;;
15171;SDS011;7686;52.184;9.280;2023-02-28T15:31:00;0.63;;;0.60;;
15171;SDS011;7686;52.184;9.280;2023-02-28T15:33:30;1.20;;;0.70;;
15171;SDS011;7686;52.184;9.280;2023-02-28T15:36:33;0.60;;;0.60;;
15171;SDS011;7686;52.184;9.280;2023-02-28T15:38:55;0.90;;;0.57;;
15171;SDS011;7686;52.184;9.280;2023-02-28T15:41:36;0.50;;;0.50;;
15171;SDS011;7686;52.184;9.280;2023-02-28T15:44:13;1.33;;;0.50;;
15171;SDS011;7686;52.184;9.280;2023-02-28T15:46:59;0.65;;;0.40;;
15171;SDS011;7686;52.184;9.280;2023-02-28T15:49:27;0.50;;;0.50;;
15171;SDS011;7686;52.184;9.280;2023-02-28T15:51:57;1.67;;;0.80;;
15171;SDS011;7686;52.184;9.280;2023-02-28T15:54:29;0.50;;;0.50;;
15171;SDS011;7686;52.184;9.280;2023-02-28T15:57:01;0.88;;;0.60;;
15171;SDS011;7686;52.184;9.280;2023-02-28T15:59:36;1.88;;;0.73;;
15171;SDS011;7686;52.184;9.280;2023-02-28T16:04:36;1.65;;;0.70;;
15171;SDS011;7686;52.184;9.280;2023-02-28T16:07:19;2.38;;;0.68;;
15171;SDS011;7686;52.184;9.280;2023-02-28T16:09:46;2.40;;;0.60;;
15171;SDS011;7686;52.184;9.280;2023-02-28T16:12:14;1.27;;;0.65;;
15171;SDS011;7686;52.184;9.280;2023-02-28T16:14:40;0.60;;;0.60;;
15171;SDS011;7686;52.184;9.280;2023-02-28T16:17:26;1.13;;;0.60;;
15171;SDS011;7686;52.184;9.280;2023-02-28T16:19:55;0.50;;;0.50;;
15171;SDS011;7686;52.184;9.280;2023-02-28T16:22:22;0.52;;;0.52;;
15171;SDS011;7686;52.184;9.280;2023-02-28T16:24:48;1.95;;;0.60;;
15171;SDS011;7686;52.184;9.280;2023-02-28T16:27:24;0.95;;;0.60;;
15171;SDS011;7686;52.184;9.280;2023-02-28T16:29:55;0.60;;;0.60;;
15171;SDS011;7686;52.184;9.280;2023-02-28T16:32:23;0.60;;;0.50;;
15171;SDS011;7686;52.184;9.280;2023-02-28T16:34:49;1.08;;;0.60;;
15171;SDS011;7686;52.184;9.280;2023-02-28T16:37:17;1.65;;;0.60;;
15171;SDS011;7686;52.184;9.280;2023-02-28T16:39:44;1.67;;;0.50;;
15171;SDS011;7686;52.184;9.280;2023-02-28T16:42:15;0.52;;;0.50;;
15171;SDS011;7686;52.184;9.280;2023-02-28T16:44:48;1.83;;;0.50;;
15171;SDS011;7686;52.184;9.280;2023-02-28T16:47:15;1.15;;;0.63;;
15171;SDS011;7686;52.184;9.280;2023-02-28T16:49:41;1.92;;;0.60;;
15171;SDS011;7686;52.184;9.280;2023-02-28T16:52:09;1.02;;;0.45;;
15171;SDS011;7686;52.184;9.280;2023-02-28T16:54:38;1.75;;;0.50;;
15171;SDS011;7686;52.184;9.280;2023-02-28T16:57:10;0.60;;;0.40;;
15171;SDS011;7686;52.184;9.280;2023-02-28T16:59:48;1.58;;;0.60;;
15171;SDS011;7686;52.184;9.280;2023-02-28T17:02:17;0.68;;;0.68;;
15171;SDS011;7686;52.184;9.280;2023-02-28T17:04:47;1.40;;;0.70;;
15171;SDS011;7686;52.184;9.280;2023-02-28T17:07:15;1.05;;;0.60;;
15171;SDS011;7686;52.184;9.280;2023-02-28T17:09:43;0.65;;;0.60;;
15171;SDS011;7686;52.184;9.280;2023-02-28T17:12:11;1.35;;;0.57;;
15171;SDS011;7686;52.184;9.280;2023-02-28T17:14:38;0.60;;;0.50;;
15171;SDS011;7686;52.184;9.280;2023-02-28T17:17:05;0.52;;;0.52;;
15171;SDS011;7686;52.184;9.280;2023-02-28T17:19:32;2.55;;;0.63;;
15171;SDS011;7686;52.184;9.280;2023-02-28T17:22:00;0.82;;;0.63;;
15171;SDS011;7686;52.184;9.280;2023-02-28T17:24:27;2.97;;;0.70;;
15171;SDS011;7686;52.184;9.280;2023-02-28T17:26:56;0.63;;;0.50;;
15171;SDS011;7686;52.184;9.280;2023-02-28T17:29:23;0.80;;;0.50;;
15171;SDS011;7686;52.184;9.280;2023-02-28T17:31:50;0.95;;;0.60;;
15171;SDS011;7686;52.184;9.280;2023-02-28T17:34:17;1.50;;;0.57;;
15171;SDS011;7686;52.184;9.280;2023-02-28T17:36:46;1.42;;;0.50;;
15171;SDS011;7686;52.184;9.280;2023-02-28T17:39:14;1.48;;;0.50;;
15171;SDS011;7686;52.184;9.280;2023-02-28T17:41:45;2.83;;;0.80;;
15171;SDS011;7686;52.184;9.280;2023-02-28T17:44:12;1.17;;;0.60;;
15171;SDS011;7686;52.184;9.280;2023-02-28T17:46:39;0.70;;;0.60;;
15171;SDS011;7686;52.184;9.280;2023-02-28T17:49:06;1.70;;;0.60;;
15171;SDS011;7686;52.184;9.280;2023-02-28T17:51:34;0.75;;;0.60;;